Time;durP1;ratioP1;P1;durP2;ratioP2;P2;SDS_P1;SDS_P2;PMS_P1;PMS_P2;Temp;Humidity;BMP_temperature;BMP_pressure;BME280_temperature;BME280_humidity;BME280_pressure;Samples;Min_cycle;Max_cycle;Signal;HPM_P1;HPM_P2
2023/01/21 05:23:41;;;;;;;4.50;2.83;;;;;;;-1.17;89.87;100887.88;5068781;28;20540;-66
2023/01/21 05:26:07;;;;;;;5.47;2.75;;;;;;;-1.15;89.04;100893.03;5069061;28;20040;-66
2023/01/21 05:28:32;;;;;;;5.28;2.65;;;;;;;-1.18;89.87;100890.56;5067572;28;20120;-66
2023/01/21 05:31:02;;;;;;;5.25;2.70;;;;;;;-1.19;90.17;100894.09;5069393;28;20489;-66
2023/01/21 05:33:34;;;;;;;2.83;2.53;;;;;;;-1.20;90.86;100900.28;5067615;28;20054;-63
2023/01/21 05:36:00;;;;;;;5.57;2.67;;;;;;;-1.24;90.59;100890.88;5085216;22;20037;-67
2023/01/21 05:38:26;;;;;;;4.07;2.83;;;;;;;-1.31;91.95;100894.75;5030451;28;20056;-67
2023/01/21 05:40:57;;;;;;;3.28;2.47;;;;;;;-1.23;91.66;100903.06;5048449;28;20041;-67
2023/01/21 05:43:22;;;;;;;4.50;3.10;;;;;;;-1.24;91.50;100912.69;5048400;28;20064;-66
2023/01/21 05:45:48;;;;;;;7.55;3.15;;;;;;;-1.28;92.69;100916.38;5048275;28;20062;-66
2023/01/21 05:48:13;;;;;;;4.60;3.53;;;;;;;-1.34;93.57;100918.47;5048137;28;20112;-67
2023/01/21 05:50:38;;;;;;;4.18;3.05;;;;;;;-1.38;94.25;100913.38;5048260;28;20486;-64
2023/01/21 05:53:04;;;;;;;3.38;2.83;;;;;;;-1.42;95.93;100918.88;5048206;28;20045;-66
2023/01/21 05:55:29;;;;;;;4.95;3.83;;;;;;;-1.34;96.36;100937.59;5048160;28;20094;-65
2023/01/21 05:57:55;;;;;;;4.18;3.65;;;;;;;-1.48;97.98;100930.50;5046577;28;20516;-65
2023/01/21 06:00:20;;;;;;;8.13;3.78;;;;;;;-1.59;99.46;100942.41;5047996;28;20037;-65
2023/01/21 06:02:46;;;;;;;5.65;4.35;;;;;;;-1.58;100.00;100941.47;5048756;28;20044;-67
2023/01/21 06:05:11;;;;;;;5.05;3.80;;;;;;;-1.60;100.00;100940.72;5048276;28;20433;-66
2023/01/21 06:07:37;;;;;;;5.20;3.38;;;;;;;-1.65;100.00;100954.00;5047643;28;20037;-66
2023/01/21 06:10:02;;;;;;;6.10;3.75;;;;;;;-1.77;100.00;100957.25;5047794;28;20044;-67
2023/01/21 06:12:28;;;;;;;9.63;5.10;;;;;;;-1.68;100.00;100965.47;5047803;28;20498;-65
2023/01/21 06:14:53;;;;;;;6.38;3.95;;;;;;;-1.77;100.00;100963.31;5047847;28;20496;-65
2023/01/21 06:17:19;;;;;;;7.72;4.70;;;;;;;-1.80;100.00;100966.09;5047366;28;20041;-64
2023/01/21 06:19:44;;;;;;;7.13;4.78;;;;;;;-1.98;100.00;100965.22;5047632;28;20039;-64
2023/01/21 06:22:14;;;;;;;8.35;5.82;;;;;;;-1.94;100.00;100964.19;5047610;28;20368;-65
2023/01/21 06:24:40;;;;;;;8.95;5.18;;;;;;;-2.01;100.00;100977.59;5047651;28;20041;-65
2023/01/21 06:27:05;;;;;;;8.23;5.03;;;;;;;-2.03;100.00;100989.88;5047383;28;20060;-66
2023/01/21 06:29:30;;;;;;;12.15;5.60;;;;;;;-2.09;100.00;100979.72;5047314;28;20494;-67
2023/01/21 06:31:56;;;;;;;9.07;4.47;;;;;;;-2.13;100.00;100992.09;5047312;28;20075;-64
2023/01/21 06:34:21;;;;;;;7.40;4.63;;;;;;;-2.25;100.00;100992.69;5037972;28;20140;-65
2023/01/21 06:36:47;;;;;;;11.07;6.18;;;;;;;-2.25;100.00;100993.53;5033706;28;20067;-67
2023/01/21 06:39:12;;;;;;;11.45;5.35;;;;;;;-2.37;100.00;100998.50;5033838;28;20641;-66
2023/01/21 06:41:37;;;;;;;10.45;4.22;;;;;;;-2.34;100.00;101000.97;5033843;28;20371;-66
2023/01/21 06:44:03;;;;;;;9.73;6.15;;;;;;;-2.34;100.00;101003.56;5033917;28;20045;-66
2023/01/21 06:46:29;;;;;;;6.85;4.03;;;;;;;-2.36;100.00;101013.22;5033784;28;20494;-65
2023/01/21 06:48:54;;;;;;;8.00;4.60;;;;;;;-2.34;100.00;101017.47;5033425;28;20071;-65
2023/01/21 06:51:20;;;;;;;8.45;5.80;;;;;;;-2.35;100.00;101025.34;5033968;28;20406;-63
2023/01/21 06:53:45;;;;;;;14.57;5.20;;;;;;;-2.34;100.00;101032.28;5033771;28;20394;-63
2023/01/21 06:56:11;;;;;;;8.63;5.63;;;;;;;-2.36;100.00;101036.72;5032345;28;20522;-64
2023/01/21 06:58:36;;;;;;;6.82;3.55;;;;;;;-2.33;100.00;101045.25;5031882;28;20033;-64
2023/01/21 07:01:02;;;;;;;8.60;4.78;;;;;;;-2.28;100.00;101039.84;5033492;28;20504;-65
2023/01/21 07:03:28;;;;;;;8.02;4.28;;;;;;;-2.28;100.00;101043.28;5033640;28;20037;-66
2023/01/21 07:05:53;;;;;;;9.43;5.05;;;;;;;-2.25;100.00;101047.50;5033609;28;20132;-65
2023/01/21 07:08:19;;;;;;;6.45;4.10;;;;;;;-2.27;100.00;101038.91;5033584;28;20164;-65
2023/01/21 07:10:44;;;;;;;8.00;5.40;;;;;;;-2.19;100.00;101052.44;5032510;28;20044;-65
2023/01/21 07:13:09;;;;;;;9.60;4.95;;;;;;;-2.19;100.00;101060.28;5033537;28;20042;-64
2023/01/21 07:15:35;;;;;;;7.60;4.32;;;;;;;-2.21;100.00;101055.13;5033206;28;20106;-63
2023/01/21 07:18:00;;;;;;;11.02;4.65;;;;;;;-2.19;100.00;101060.28;5031952;28;20112;-65
2023/01/21 07:20:26;;;;;;;7.40;4.55;;;;;;;-2.16;100.00;101061.88;5033180;28;20142;-65
2023/01/21 07:22:51;;;;;;;5.10;3.67;;;;;;;-2.13;100.00;101066.97;5033335;28;20045;-64
2023/01/21 07:25:16;;;;;;;9.13;4.22;;;;;;;-2.10;100.00;101072.88;5033019;28;20041;-64
2023/01/21 07:27:42;;;;;;;10.73;4.03;;;;;;;-2.19;100.00;101070.72;5030795;28;20084;-64
2023/01/21 07:30:14;;;;;;;8.43;4.30;;;;;;;-2.12;100.00;101076.50;5033410;28;20365;-65
2023/01/21 07:32:39;;;;;;;6.15;4.25;;;;;;;-2.07;100.00;101085.81;5033716;28;20383;-64
2023/01/21 07:35:05;;;;;;;6.20;3.40;;;;;;;-2.04;100.00;101083.03;5033356;28;20064;-63
2023/01/21 07:37:31;;;;;;;6.40;3.67;;;;;;;-2.03;100.00;101087.31;4998912;28;20058;-65
2023/01/21 07:39:56;;;;;;;7.65;3.67;;;;;;;-1.97;100.00;101088.81;5033220;28;20037;-64
2023/01/21 07:42:21;;;;;;;5.53;3.00;;;;;;;-1.98;100.00;101090.56;5033066;28;20505;-65
2023/01/21 07:44:47;;;;;;;5.57;3.80;;;;;;;-2.04;100.00;101083.03;5031980;28;20048;-64
2023/01/21 07:47:12;;;;;;;10.18;3.75;;;;;;;-1.94;100.00;101097.34;5031618;28;20123;-64
2023/01/21 07:49:38;;;;;;;5.25;4.03;;;;;;;-1.87;100.00;101102.28;5032883;28;20201;-63
2023/01/21 07:52:03;;;;;;;9.07;5.22;;;;;;;-1.84;100.00;101102.13;5032885;28;20048;-65
2023/01/21 07:54:29;;;;;;;4.20;2.85;;;;;;;-1.86;100.00;101097.00;5032997;28;20088;-65
2023/01/21 07:56:54;;;;;;;6.72;3.85;;;;;;;-1.85;100.00;101103.06;5032526;28;20421;-66
2023/01/21 07:59:20;;;;;;;6.53;4.45;;;;;;;-1.78;100.00;101097.47;5032519;28;20087;-64
2023/01/21 08:01:45;;;;;;;3.50;3.15;;;;;;;-1.77;100.00;101100.91;5032601;28;20037;-65
2023/01/21 08:04:11;;;;;;;7.53;4.20;;;;;;;-1.74;100.00;101108.63;5032607;28;20041;-63
2023/01/21 08:06:36;;;;;;;8.93;3.67;;;;;;;-1.70;100.00;101099.69;5031334;28;20093;-63
2023/01/21 08:09:03;;;;;;;4.75;2.72;;;;;;;-1.64;100.00;101104.63;5032244;28;20033;-65
2023/01/21 08:11:28;;;;;;;10.27;4.20;;;;;;;-1.64;100.00;101113.31;5032474;28;20466;-65
2023/01/21 08:13:54;;;;;;;8.93;3.67;;;;;;;-1.62;100.00;101118.47;5032389;28;20080;-65
2023/01/21 08:16:19;;;;;;;7.20;4.38;;;;;;;-1.62;100.00;101118.47;5032370;28;20076;-63
2023/01/21 08:18:44;;;;;;;7.70;4.18;;;;;;;-1.60;100.00;101114.00;5031907;28;20122;-63
2023/01/21 08:21:10;;;;;;;6.50;3.75;;;;;;;-1.58;100.00;101117.38;5031049;28;20545;-66
2023/01/21 08:23:35;;;;;;;8.15;4.15;;;;;;;-1.52;100.00;101122.31;5032618;28;20048;-63
2023/01/21 08:26:02;;;;;;;4.38;3.03;;;;;;;-1.44;100.00;101114.94;5031282;28;20048;-62
2023/01/21 08:28:27;;;;;;;6.75;3.85;;;;;;;-1.37;100.00;101115.50;5031756;28;20033;-65
2023/01/21 08:30:53;;;;;;;8.35;4.00;;;;;;;-1.30;100.00;101129.13;5032227;28;20048;-64
2023/01/21 08:33:18;;;;;;;7.30;3.92;;;;;;;-1.27;99.43;101123.75;5031933;28;20136;-63
2023/01/21 08:35:44;;;;;;;5.00;3.42;;;;;;;-1.22;99.40;101127.81;5031896;28;20120;-64
2023/01/21 08:38:09;;;;;;;5.07;3.53;;;;;;;-1.21;100.00;101139.13;5030460;28;20044;-61
2023/01/21 08:40:34;;;;;;;6.35;3.65;;;;;;;-1.16;99.54;101135.34;5030724;28;20038;-63
2023/01/21 08:43:02;;;;;;;5.10;3.75;;;;;;;-1.16;99.12;101144.97;5031642;28;20099;-63
2023/01/21 08:45:28;;;;;;;6.43;3.60;;;;;;;-1.21;100.00;101144.34;5031907;28;20037;-64
2023/01/21 08:47:54;;;;;;;6.05;3.88;;;;;;;-1.15;99.38;101146.66;5031653;28;20120;-64
2023/01/21 08:50:20;;;;;;;8.02;3.83;;;;;;;-1.13;99.76;101150.03;5033164;28;20080;-63
2023/01/21 08:52:53;;;;;;;3.85;2.65;;;;;;;-1.10;99.07;101152.50;5030602;28;20037;-63
2023/01/21 08:55:19;;;;;;;13.07;3.85;;;;;;;-1.13;100.00;101147.41;5031624;28;20046;-64
2023/01/21 08:57:45;;;;;;;5.97;3.50;;;;;;;-1.11;100.00;101151.66;5031014;28;20212;-63
2023/01/21 09:00:13;;;;;;;8.55;4.28;;;;;;;-1.04;99.70;101154.81;5031589;28;20045;-64
2023/01/21 09:02:38;;;;;;;6.22;3.30;;;;;;;-1.04;99.21;101156.56;5030547;28;20113;-65
2023/01/21 09:05:04;;;;;;;8.13;3.97;;;;;;;-0.96;98.23;101160.50;5031668;28;20106;-64
2023/01/21 09:07:29;;;;;;;6.20;3.55;;;;;;;-1.03;99.00;101159.13;5031182;28;20037;-64
2023/01/21 09:09:55;;;;;;;5.57;3.78;;;;;;;-0.97;98.40;101163.22;5031372;28;20037;-64
2023/01/21 09:12:20;;;;;;;6.35;3.40;;;;;;;-0.99;98.91;101163.25;5030415;28;20494;-64
2023/01/21 09:14:46;;;;;;;7.50;2.92;;;;;;;-0.87;98.57;101164.41;5031425;28;20041;-64
2023/01/21 09:17:11;;;;;;;4.45;3.17;;;;;;;-0.89;97.86;101164.50;5031004;28;20126;-63
2023/01/21 09:19:36;;;;;;;6.95;3.83;;;;;;;-0.85;97.55;101166.06;5030224;28;20041;-65
2023/01/21 09:22:02;;;;;;;5.60;3.25;;;;;;;-0.84;97.08;101156.44;5031380;28;20045;-63
2023/01/21 09:24:27;;;;;;;9.73;3.50;;;;;;;-1.01;97.25;101159.88;5013705;28;20235;-64
2023/01/21 09:26:54;;;;;;;9.38;4.43;;;;;;;-0.86;97.02;101172.19;5031082;28;20083;-66
2023/01/21 09:29:19;;;;;;;6.00;3.25;;;;;;;-0.92;97.14;101162.03;5029910;28;20506;-63
2023/01/21 09:31:44;;;;;;;6.55;4.82;;;;;;;-0.89;97.82;101172.34;5031364;28;20133;-64
2023/01/21 09:34:10;;;;;;;5.03;3.00;;;;;;;-0.93;99.12;101176.03;5031418;28;20096;-62
2023/01/21 09:36:37;;;;;;;6.93;4.05;;;;;;;-0.81;98.11;101182.41;5029958;28;20049;-63
2023/01/21 09:39:02;;;;;;;5.53;3.17;;;;;;;-0.79;97.76;101179.72;5031127;28;20057;-63
2023/01/21 09:41:55;;;;;;;5.40;4.22;;;;;;;-0.89;98.43;101180.19;5031719;28;20052;-66
2023/01/21 09:44:26;;;;;;;6.82;4.20;;;;;;;-0.82;97.61;101181.56;5027962;28;20461;-65
2023/01/21 09:47:07;;;;;;;7.22;3.53;;;;;;;-0.73;98.16;101187.25;5031287;28;20042;-66
2023/01/21 09:49:41;;;;;;;7.78;3.75;;;;;;;-0.83;98.42;101185.13;5031302;28;20033;-65
2023/01/21 09:52:39;;;;;;;5.22;3.78;;;;;;;-0.74;97.87;101196.88;5031545;28;20129;-65
2023/01/21 09:55:13;;;;;;;5.47;2.63;;;;;;;-0.82;97.15;101176.34;5031328;28;20052;-64
2023/01/21 09:57:54;;;;;;;4.40;3.22;;;;;;;-0.61;95.98;101184.88;5030770;28;20079;-66
2023/01/21 10:00:38;;;;;;;7.20;3.92;;;;;;;-0.61;97.76;101186.63;5031118;28;20041;-65
2023/01/21 10:03:26;;;;;;;9.15;4.40;;;;;;;-0.56;99.30;101187.25;5030937;28;20042;-65
2023/01/21 10:06:20;;;;;;;7.35;3.70;;;;;;;-0.46;97.09;101198.06;5030901;28;20116;-64
2023/01/21 10:09:08;;;;;;;5.80;3.72;;;;;;;-0.41;94.87;101194.28;5031107;28;20045;-65
2023/01/21 10:11:52;;;;;;;6.57;4.30;;;;;;;-0.48;94.94;101179.84;5034611;28;20049;-65
2023/01/21 10:15:04;;;;;;;9.50;4.07;;;;;;;-0.25;94.43;101190.91;5034838;28;20075;-68
2023/01/21 10:17:56;;;;;;;7.40;3.67;;;;;;;-0.29;93.76;101196.28;5020895;28;20052;-69
2023/01/21 10:20:32;;;;;;;7.97;3.85;;;;;;;-0.25;93.49;101190.91;5025422;28;20052;-68
2023/01/21 10:23:25;;;;;;;6.05;4.15;;;;;;;-0.14;92.56;101188.53;5034223;28;20506;-68
2023/01/21 10:25:51;;;;;;;4.85;3.08;;;;;;;-0.14;94.01;101192.00;5025033;28;20099;-68
2023/01/21 10:28:22;;;;;;;5.82;3.42;;;;;;;0.01;92.71;101190.34;5033977;28;20037;-68
2023/01/21 10:30:53;;;;;;;6.25;4.00;;;;;;;0.17;92.08;101193.81;5034335;28;20036;-68
2023/01/21 10:33:22;;;;;;;5.18;3.50;;;;;;;0.26;93.58;101197.69;5034248;28;20029;-68
2023/01/21 10:36:16;;;;;;;7.18;4.18;;;;;;;0.23;92.98;101192.63;5034208;28;20042;-68
2023/01/21 10:38:51;;;;;;;9.23;3.30;;;;;;;-0.01;93.61;101185.16;5033893;28;20025;-67
2023/01/21 10:41:54;;;;;;;5.80;3.30;;;;;;;0.08;94.55;101181.22;5034321;28;20037;-68
2023/01/21 10:44:38;;;;;;;5.65;3.40;;;;;;;0.24;93.30;101168.97;5034146;28;20064;-67
2023/01/21 10:47:15;;;;;;;7.18;3.83;;;;;;;0.33;91.66;101170.25;5033836;28;20057;-67
2023/01/21 10:49:54;;;;;;;6.95;4.13;;;;;;;0.46;90.58;101167.78;5032856;28;20033;-65
2023/01/21 10:52:37;;;;;;;9.75;4.93;;;;;;;0.35;94.26;101176.22;5034033;28;20390;-67
2023/01/21 10:55:19;;;;;;;8.57;4.93;;;;;;;0.19;95.00;101186.69;5035391;28;20061;-66
2023/01/21 10:57:57;;;;;;;8.00;4.18;;;;;;;0.06;95.23;101190.91;5034141;28;20486;-66
2023/01/21 11:00:34;;;;;;;8.27;4.90;;;;;;;0.23;94.63;101179.53;5033883;28;20041;-67
2023/01/21 11:03:07;;;;;;;8.65;4.88;;;;;;;0.23;94.55;101180.38;5033778;28;20083;-67
2023/01/21 11:05:33;;;;;;;7.85;4.95;;;;;;;0.06;93.16;101175.19;5033765;28;20092;-67
2023/01/21 11:07:58;;;;;;;6.55;4.32;;;;;;;0.21;92.51;101184.03;5033507;28;20033;-66
2023/01/21 11:10:26;;;;;;;10.60;5.00;;;;;;;0.24;92.73;101182.06;5033702;28;20041;-67
2023/01/21 11:12:55;;;;;;;11.38;4.93;;;;;;;-0.04;94.36;101184.50;5033642;28;20056;-67
2023/01/21 11:15:21;;;;;;;9.35;5.43;;;;;;;-0.02;96.05;101182.63;5033537;28;20065;-67
2023/01/21 11:17:49;;;;;;;10.05;5.47;;;;;;;-0.06;96.50;101171.50;5033478;28;20040;-65
2023/01/21 11:20:17;;;;;;;;;;;;;;;0.05;96.12;101170.06;5033962;28;20045;-67
2023/01/21 11:22:45;;;;;;;8.02;4.53;;;;;;;-0.08;95.89;101159.38;5032042;28;19959;-66
2023/01/21 11:25:24;;;;;;;9.18;4.88;;;;;;;0.05;95.50;101167.44;5033498;28;20079;-66
2023/01/21 11:27:49;;;;;;;11.98;6.47;;;;;;;0.16;95.60;101163.31;5033105;28;20029;-67
2023/01/21 11:30:41;;;;;;;6.30;4.18;;;;;;;0.03;94.77;101169.28;5033303;28;20040;-68
2023/01/21 11:33:22;;;;;;;9.20;4.80;;;;;;;-0.11;95.14;101173.50;5029431;28;20041;-65
2023/01/21 11:35:48;;;;;;;8.15;4.78;;;;;;;-0.25;95.37;101172.56;5047828;22;20033;-67
2023/01/21 11:38:40;;;;;;;10.52;5.57;;;;;;;-0.15;95.59;101171.13;5032600;28;20073;-67
2023/01/21 11:41:11;;;;;;;9.18;5.03;;;;;;;-0.09;94.61;101174.25;5030460;28;20052;-67
2023/01/21 11:43:43;;;;;;;11.38;5.18;;;;;;;-0.16;94.60;101183.38;5033117;28;20029;-68
2023/01/21 11:46:34;;;;;;;11.02;5.50;;;;;;;-0.10;93.55;101184.84;5032858;28;20041;-67
2023/01/21 11:49:05;;;;;;;8.30;4.30;;;;;;;-0.23;94.25;101178.56;5015060;28;20099;-67
2023/01/21 11:51:31;;;;;;;9.48;4.43;;;;;;;-0.28;95.22;101181.41;5031757;28;20037;-67
2023/01/21 11:54:12;;;;;;;8.77;5.05;;;;;;;-0.27;95.54;101181.31;5032941;28;20037;-67
2023/01/21 11:56:38;;;;;;;6.47;3.85;;;;;;;-0.21;95.78;101180.16;5032977;28;20043;-66
2023/01/21 11:59:42;;;;;;;12.00;5.03;;;;;;;-0.26;96.70;101179.56;5032792;28;20036;-66
2023/01/21 12:02:20;;;;;;;7.80;5.07;;;;;;;-0.24;95.13;101189.97;5032760;28;20037;-67
2023/01/21 12:04:54;;;;;;;12.93;5.53;;;;;;;-0.35;96.58;101180.88;5033025;28;20045;-66
2023/01/21 12:07:26;;;;;;;7.63;4.88;;;;;;;-0.33;95.65;101181.69;5032361;28;20048;-68
2023/01/21 12:10:23;;;;;;;12.05;5.50;;;;;;;-0.34;96.48;101177.34;5032764;28;20128;-69
2023/01/21 12:13:14;;;;;;;10.60;4.70;;;;;;;-0.25;95.94;101173.41;5028263;28;20116;-68
2023/01/21 12:15:55;;;;;;;8.30;4.32;;;;;;;-0.34;97.47;101169.47;5032624;28;20037;-68
2023/01/21 12:18:23;;;;;;;12.05;5.78;;;;;;;-0.59;97.99;101161.22;5032352;28;20071;-69
2023/01/21 12:21:03;;;;;;;12.82;6.95;;;;;;;-0.46;98.42;101164.88;5031321;28;20037;-68
2023/01/21 12:24:05;;;;;;;10.18;5.20;;;;;;;-0.60;99.02;101160.38;5031686;28;20036;-69
2023/01/21 12:26:34;;;;;;;11.82;5.40;;;;;;;-0.55;98.57;101158.38;5032274;28;20509;-68
2023/01/21 12:29:32;;;;;;;10.95;5.85;;;;;;;-0.62;99.28;101156.16;5032008;28;20037;-69
2023/01/21 12:32:08;;;;;;;10.68;5.63;;;;;;;-0.53;99.46;101155.66;5031705;28;20052;-68
2023/01/21 12:34:41;;;;;;;8.43;4.78;;;;;;;-0.63;99.14;101154.47;5032100;28;20029;-69
2023/01/21 12:37:16;;;;;;;11.77;6.28;;;;;;;-0.55;99.28;101158.38;5031812;28;20127;-68
2023/01/21 12:39:43;;;;;;;10.38;4.82;;;;;;;-0.59;99.03;101162.09;5031990;28;20103;-69
2023/01/21 12:42:14;;;;;;;11.50;5.50;;;;;;;-0.46;98.67;101157.03;5031932;28;20048;-69
2023/01/21 12:44:46;;;;;;;9.13;4.45;;;;;;;-0.40;99.03;101161.94;5031909;28;20045;-68
2023/01/21 12:47:39;;;;;;;9.55;4.57;;;;;;;-0.49;100.00;101156.38;5031635;28;20081;-67
2023/01/21 12:50:13;;;;;;;10.40;6.40;;;;;;;-0.44;100.00;101157.81;5024071;28;20063;-67
2023/01/21 12:52:47;;;;;;;11.70;5.53;;;;;;;-0.42;99.95;101158.56;5031424;28;20386;-67
2023/01/21 12:55:17;;;;;;;8.80;5.13;;;;;;;-0.51;99.47;101156.47;5047047;28;20065;-66
2023/01/21 12:57:52;;;;;;;9.48;5.07;;;;;;;-0.41;98.42;101160.25;5030145;28;20049;-67
2023/01/21 13:00:40;;;;;;;9.50;5.18;;;;;;;-0.45;98.20;101164.00;5031781;28;20029;-67
2023/01/21 13:03:22;;;;;;;9.25;5.05;;;;;;;-0.44;98.08;101164.84;5031705;28;20029;-67
2023/01/21 13:05:58;;;;;;;11.13;5.18;;;;;;;-0.43;98.96;101164.75;5031663;28;20128;-68
2023/01/21 13:08:33;;;;;;;9.40;4.53;;;;;;;-0.44;98.41;101164.84;5013554;28;20033;-68
2023/01/21 13:11:27;;;;;;;9.10;5.38;;;;;;;-0.35;98.34;101170.41;5031791;28;20406;-67
2023/01/21 13:14:08;;;;;;;7.75;4.57;;;;;;;-0.41;100.00;101168.13;5030568;28;20033;-67
2023/01/21 13:16:39;;;;;;;16.80;4.32;;;;;;;-0.50;99.85;101167.78;5031498;28;20030;-68
2023/01/21 13:19:05;;;;;;;6.55;4.38;;;;;;;-0.34;99.28;101166.88;5031335;28;20482;-68
2023/01/21 13:21:47;;;;;;;5.28;3.67;;;;;;;-0.33;98.91;101173.81;5031409;28;20060;-68
2023/01/21 13:24:19;;;;;;;7.10;4.40;;;;;;;-0.24;99.76;101174.25;5031692;28;20151;-68
2023/01/21 13:26:53;;;;;;;6.72;4.70;;;;;;;-0.27;99.77;101175.25;5031290;28;20041;-67
2023/01/21 13:29:37;;;;;;;7.93;3.55;;;;;;;-0.26;98.77;101179.56;5031254;28;20066;-67
2023/01/21 13:32:11;;;;;;;8.65;5.15;;;;;;;-0.21;97.37;101174.91;5031485;28;20059;-68
2023/01/21 13:34:50;;;;;;;10.43;4.40;;;;;;;-0.15;96.91;101176.38;5031498;28;20446;-68
2023/01/21 13:37:31;;;;;;;10.27;5.22;;;;;;;-0.21;99.17;101171.44;5031229;28;20033;-68
2023/01/21 13:40:34;;;;;;;8.93;5.60;;;;;;;-0.26;98.12;101176.97;5031806;28;20037;-65
2023/01/21 13:43:08;;;;;;;8.05;4.88;;;;;;;-0.23;98.06;101176.78;5032870;28;20069;-66
2023/01/21 13:46:03;;;;;;;9.23;4.72;;;;;;;-0.28;98.68;101179.63;5035254;28;20038;-68
2023/01/21 13:48:52;;;;;;;6.85;4.05;;;;;;;-0.17;99.06;101168.59;5034974;28;20038;-68
2023/01/21 13:51:44;;;;;;;10.57;5.18;;;;;;;-0.17;98.92;101176.47;5035168;28;20044;-67
2023/01/21 13:54:26;;;;;;;13.65;5.60;;;;;;;-0.18;98.97;101176.53;5050537;28;20033;-68
2023/01/21 13:57:30;;;;;;;5.95;4.00;;;;;;;-0.16;99.41;101178.16;5033914;28;20048;-68
2023/01/21 14:00:07;;;;;;;10.07;4.93;;;;;;;-0.15;99.00;101184.22;5035151;28;20042;-68
2023/01/21 14:03:15;;;;;;;6.97;4.28;;;;;;;-0.24;99.58;101185.56;5035190;28;20037;-68
2023/01/21 14:06:12;;;;;;;7.25;4.63;;;;;;;-0.16;100.00;101182.53;4980734;28;20531;-67
2023/01/21 14:08:56;;;;;;;5.35;3.85;;;;;;;-0.16;99.68;101183.38;5013725;28;20517;-66
2023/01/21 14:11:41;;;;;;;10.43;4.85;;;;;;;-0.17;99.97;101189.56;5034800;28;20552;-67
2023/01/21 14:14:18;;;;;;;10.02;6.13;;;;;;;-0.27;100.00;101194.41;5034822;28;20048;-67
2023/01/21 14:17:01;;;;;;;7.93;4.20;;;;;;;-0.29;100.00;101195.44;5034684;28;20046;-68
2023/01/21 14:19:47;;;;;;;11.35;5.43;;;;;;;-0.24;100.00;101193.44;5034583;28;20037;-70
2023/01/21 14:22:35;;;;;;;8.57;4.50;;;;;;;-0.31;100.00;101190.28;5033235;28;20028;-69
2023/01/21 14:25:17;;;;;;;11.15;4.18;;;;;;;-0.23;100.00;101194.28;5034668;28;20280;-67
2023/01/21 14:28:08;;;;;;;9.35;5.60;;;;;;;-0.15;100.00;101194.69;5014706;28;20041;-67
2023/01/21 14:30:58;;;;;;;7.90;4.28;;;;;;;-0.29;100.00;101190.19;5014741;28;20432;-69
2023/01/21 14:33:35;;;;;;;14.88;5.75;;;;;;;-0.21;100.00;101197.66;5014649;28;20041;-68
2023/01/21 14:36:06;;;;;;;8.75;4.25;;;;;;;-0.24;100.00;101192.59;5014606;28;20061;-69
2023/01/21 14:38:42;;;;;;;7.95;4.57;;;;;;;-0.15;100.00;101197.31;5014429;28;20044;-68
2023/01/21 14:41:10;;;;;;;7.68;4.63;;;;;;;-0.22;100.00;101204.66;5014679;28;20037;-67
2023/01/21 14:43:36;;;;;;;6.50;3.55;;;;;;;-0.20;100.00;101208.03;5014549;28;20065;-68
2023/01/21 14:46:28;;;;;;;7.60;4.80;;;;;;;-0.19;100.00;101214.16;5014747;28;20061;-68
2023/01/21 14:49:05;;;;;;;8.93;4.25;;;;;;;-0.22;100.00;101211.66;5013091;28;20479;-68
2023/01/21 14:51:33;;;;;;;9.80;4.97;;;;;;;-0.21;100.00;101215.97;5014459;28;20052;-68
2023/01/21 14:54:09;;;;;;;10.35;5.47;;;;;;;-0.28;100.00;101215.44;5014198;28;20041;-68
2023/01/21 14:56:36;;;;;;;9.18;4.88;;;;;;;-0.27;100.00;101217.97;5014338;28;20041;-68
2023/01/21 14:59:06;;;;;;;6.55;4.40;;;;;;;-0.29;100.00;101221.63;5013918;28;20041;-69
2023/01/21 15:01:44;;;;;;;9.07;4.57;;;;;;;-0.33;100.00;101220.94;5014421;28;20100;-68
2023/01/21 15:04:19;;;;;;;;;;;;;;;-0.30;100.00;101225.16;5014558;28;20137;-68
2023/01/21 15:06:45;;;;;;;5.35;3.45;;;;;;;-0.31;100.00;101228.72;5014005;28;20366;-68
2023/01/21 15:09:21;;;;;;;8.18;4.40;;;;;;;-0.31;100.00;101219.09;5013851;28;20048;-68
2023/01/21 15:11:51;;;;;;;8.20;3.63;;;;;;;-0.29;100.00;101216.38;5014033;28;20502;-68
2023/01/21 15:14:26;;;;;;;8.60;4.30;;;;;;;-0.35;100.00;101222.78;5014022;28;20034;-68
2023/01/21 15:16:52;;;;;;;7.38;3.88;;;;;;;-0.31;100.00;101216.47;5015244;28;20068;-68
2023/01/21 15:19:23;;;;;;;9.77;4.47;;;;;;;-0.40;100.00;101219.53;5033422;28;20490;-68
2023/01/21 15:21:57;;;;;;;7.45;4.15;;;;;;;-0.42;100.00;101221.41;5033313;28;20376;-69
2023/01/21 15:24:27;;;;;;;8.02;4.10;;;;;;;-0.39;100.00;101226.50;5032430;28;20071;-68
2023/01/21 15:27:14;;;;;;;8.65;4.65;;;;;;;-0.32;100.00;101222.63;5033433;28;20500;-68
2023/01/21 15:29:55;;;;;;;5.53;3.60;;;;;;;-0.36;100.00;101234.19;5033706;28;20091;-68
2023/01/21 15:32:31;;;;;;;8.65;4.43;;;;;;;-0.37;100.00;101235.13;5032355;28;20045;-68
2023/01/21 15:35:03;;;;;;;12.80;4.45;;;;;;;-0.36;100.00;101231.56;5033404;28;20514;-68
2023/01/21 15:37:31;;;;;;;9.50;4.30;;;;;;;-0.31;100.00;101229.56;5032903;28;20132;-70
2023/01/21 15:40:00;;;;;;;8.20;4.15;;;;;;;-0.33;100.00;101239.28;5033265;28;20037;-71
2023/01/21 15:42:47;;;;;;;8.40;4.03;;;;;;;-0.31;100.00;101234.78;5033465;28;20606;-68
2023/01/21 15:45:18;;;;;;;9.33;4.37;;;;;;;-0.33;100.00;101230.53;5033365;28;20046;-68
2023/01/21 15:47:57;;;;;;;9.50;4.45;;;;;;;-0.38;100.00;101236.03;5032862;28;20287;-67
2023/01/21 15:50:48;;;;;;;8.10;4.03;;;;;;;-0.51;100.00;101242.00;5033820;28;20044;-67
2023/01/21 15:53:43;;;;;;;13.73;3.72;;;;;;;-0.43;100.00;101240.66;5033469;28;20037;-66
2023/01/21 15:56:27;;;;;;;7.47;4.35;;;;;;;-0.45;100.00;101239.06;5033324;28;20498;-67
2023/01/21 15:58:59;;;;;;;6.47;3.55;;;;;;;-0.49;100.00;101237.50;5014868;28;20045;-66
2023/01/21 16:01:25;;;;;;;7.35;4.00;;;;;;;-0.52;100.00;101230.69;5032903;28;20033;-65
2023/01/21 16:04:10;;;;;;;8.02;4.05;;;;;;;-0.45;100.00;101249.53;5032719;28;20034;-65
2023/01/21 16:07:03;;;;;;;7.80;4.38;;;;;;;-0.47;100.00;101249.59;5030499;28;20059;-65
2023/01/21 16:09:57;;;;;;;9.02;5.05;;;;;;;-0.50;100.00;101251.53;5032509;28;20126;-65
2023/01/21 16:12:35;;;;;;;5.70;3.70;;;;;;;-0.45;100.00;101257.38;5032547;28;20033;-66
2023/01/21 16:15:15;;;;;;;9.05;4.80;;;;;;;-0.43;100.00;101256.38;5032469;28;20033;-65
2023/01/21 16:18:12;;;;;;;8.60;4.53;;;;;;;-0.42;100.00;101252.81;5032123;28;20532;-66
2023/01/21 16:20:43;;;;;;;8.38;5.13;;;;;;;-0.46;100.00;101253.91;5032508;28;20029;-65
2023/01/21 16:23:08;;;;;;;7.93;4.50;;;;;;;-0.38;100.00;101261.38;5032375;28;20030;-65
2023/01/21 16:25:50;;;;;;;11.90;4.97;;;;;;;-0.38;100.00;101259.59;5032311;28;20049;-65
2023/01/21 16:28:18;;;;;;;7.85;4.03;;;;;;;-0.49;100.00;101259.31;5032133;28;20041;-65
2023/01/21 16:30:58;;;;;;;6.30;3.92;;;;;;;-0.47;100.00;101264.44;5032196;28;20037;-66
2023/01/21 16:33:24;;;;;;;7.28;4.32;;;;;;;-0.40;100.00;101273.69;5032412;28;20116;-65
2023/01/21 16:35:55;;;;;;;6.13;3.80;;;;;;;-0.43;100.00;101264.22;5031840;28;20109;-66
2023/01/21 16:38:25;;;;;;;9.63;5.32;;;;;;;-0.38;100.00;101264.00;5031966;28;20084;-65
2023/01/21 16:41:11;;;;;;;6.53;3.67;;;;;;;-0.32;100.00;101266.31;5032076;28;20050;-64
2023/01/21 16:43:53;;;;;;;10.43;4.95;;;;;;;-0.25;100.00;101266.84;5031783;28;20025;-68
2023/01/21 16:46:49;;;;;;;8.93;4.78;;;;;;;-0.40;100.00;101271.06;5032186;28;20144;-67
2023/01/21 16:49:15;;;;;;;5.30;3.25;;;;;;;-0.30;100.00;101269.69;5010941;28;20336;-67
2023/01/21 16:51:55;;;;;;;6.95;3.58;;;;;;;-0.42;100.00;101267.69;5032681;28;20038;-67
2023/01/21 16:54:28;;;;;;;6.53;3.55;;;;;;;-0.39;100.00;101273.63;5032443;28;20029;-66
2023/01/21 16:57:30;;;;;;;7.57;3.65;;;;;;;-0.49;100.00;101277.63;5031969;28;20475;-67
2023/01/21 16:59:56;;;;;;;7.63;4.15;;;;;;;-0.47;100.00;101275.75;5031720;28;20029;-67
2023/01/21 17:02:31;;;;;;;6.10;4.00;;;;;;;-0.45;100.00;101281.78;5031910;28;20411;-68
2023/01/21 17:05:05;;;;;;;7.65;4.03;;;;;;;-0.42;100.00;101279.00;5031829;28;20049;-67
2023/01/21 17:07:35;;;;;;;5.13;3.70;;;;;;;-0.47;100.00;101274.91;5031282;28;20037;-67
2023/01/21 17:10:16;;;;;;;8.90;4.93;;;;;;;-0.41;100.00;101282.47;5031654;28;20041;-67
2023/01/21 17:12:57;;;;;;;11.32;4.75;;;;;;;-0.42;100.00;101284.25;5031814;28;20064;-67
2023/01/21 17:15:34;;;;;;;5.28;3.45;;;;;;;-0.40;100.00;101287.63;5031791;28;20449;-67